createdAt,value
2023-01-25T00:06:33.499Z,8.87
2023-01-25T00:16:39.978Z,9.47
2023-01-25T00:26:44.630Z,10.13
2023-01-25T00:36:46.624Z,10.90
2023-01-25T00:46:51.209Z,13.07
2023-01-25T00:56:56.703Z,12.97
2023-01-25T01:06:58.972Z,10.13
2023-01-25T01:17:06.177Z,12.30
2023-01-25T01:27:10.959Z,11.40
2023-01-25T01:37:13.135Z,13.17
2023-01-25T01:47:27.166Z,11.03
2023-01-25T01:57:49.476Z,10.50
2023-01-25T02:07:58.751Z,10.87
2023-01-25T02:18:03.821Z,10.27
2023-01-25T02:28:28.694Z,9.80
2023-01-25T02:38:35.500Z,10.57
2023-01-25T02:48:37.900Z,9.27
2023-01-25T02:58:41.112Z,9.97
2023-01-25T03:08:43.516Z,9.17
2023-01-25T03:18:48.148Z,10.17
2023-01-25T03:28:50.909Z,9.67
2023-01-25T03:38:55.365Z,8.13
2023-01-25T03:49:02.425Z,7.40
2023-01-25T03:59:06.817Z,5.60
2023-01-25T04:09:10.175Z,6.33
2023-01-25T04:19:18.451Z,5.83
2023-01-25T04:29:28.766Z,5.60
2023-01-25T04:39:41.915Z,5.20
2023-01-25T04:49:46.793Z,6.27
2023-01-25T04:59:52.423Z,8.63
2023-01-25T05:09:58.409Z,10.23
2023-01-25T05:20:03.921Z,13.20
2023-01-25T05:30:08.857Z,13.93
2023-01-25T05:40:21.878Z,16.30
2023-01-25T05:50:28.264Z,17.73
2023-01-25T06:00:41.098Z,18.40
2023-01-25T06:10:47.773Z,17.80
2023-01-25T06:20:52.190Z,17.47
2023-01-25T06:31:16.587Z,19.07
2023-01-25T06:41:20.233Z,18.13
2023-01-25T06:51:22.302Z,16.43
2023-01-25T07:01:30.746Z,19.63
2023-01-25T07:11:37.979Z,16.40
2023-01-25T07:21:47.559Z,20.67
2023-01-25T07:31:52.078Z,14.30
2023-01-25T07:41:56.524Z,15.10
2023-01-25T07:52:07.165Z,15.03
2023-01-25T08:02:12.623Z,16.40
2023-01-25T08:12:17.679Z,15.50
2023-01-25T08:22:19.711Z,15.37
2023-01-25T08:32:21.847Z,12.10
2023-01-25T08:42:28.912Z,15.90
2023-01-25T08:52:33.543Z,15.47
2023-01-25T09:02:37.873Z,18.00
2023-01-25T09:12:42.474Z,17.63
2023-01-25T09:22:46.925Z,15.23
2023-01-25T09:32:52.145Z,17.67
2023-01-25T10:06:40.615Z,19.00
2023-01-25T10:16:49.251Z,18.73
2023-01-25T10:26:57.343Z,19.83
2023-01-25T10:37:05.580Z,18.13
2023-01-25T10:47:35.765Z,18.57
2023-01-25T10:57:44.153Z,18.70
2023-01-25T11:07:46.874Z,20.90
2023-01-25T11:18:11.733Z,19.70
2023-01-25T11:28:23.395Z,20.63
2023-01-25T11:38:25.929Z,19.50
2023-01-25T11:48:54.121Z,18.03
2023-01-25T11:59:02.291Z,20.73
2023-01-25T12:09:21.371Z,20.60
2023-01-25T12:19:40.891Z,19.73
2023-01-25T12:29:57.868Z,17.00
2023-01-25T12:40:35.105Z,20.87
2023-01-25T12:50:47.068Z,20.03
2023-01-25T13:01:27.845Z,18.00
2023-01-25T13:11:36.111Z,19.30
2023-01-25T13:21:41.872Z,18.77
2023-01-25T13:31:51.839Z,17.73
2023-01-25T13:42:27.511Z,19.57
2023-01-25T13:52:31.374Z,16.87
2023-01-25T14:02:36.020Z,17.00
2023-01-25T14:12:43.509Z,31.30
2023-01-25T14:22:49.533Z,19.73
2023-01-25T14:33:15.875Z,19.97
2023-01-25T14:43:18.230Z,18.67
2023-01-25T14:53:22.541Z,18.47
2023-01-25T15:03:26.939Z,17.77
2023-01-25T15:13:29.528Z,19.17
2023-01-25T15:23:31.635Z,17.53
2023-01-25T15:33:34.535Z,16.17
2023-01-25T15:43:37.109Z,18.37
2023-01-25T15:53:39.645Z,17.87
2023-01-25T16:03:41.926Z,17.43
2023-01-25T16:13:46.385Z,18.00
2023-01-25T16:23:50.969Z,20.23
2023-01-25T16:33:58.700Z,19.67
2023-01-25T16:44:03.340Z,19.00
2023-01-25T16:54:15.737Z,21.13
2023-01-25T17:04:23.578Z,21.73
2023-01-25T17:14:35.525Z,18.30
2023-01-25T17:24:45.339Z,19.47
2023-01-25T17:34:52.660Z,21.97
2023-01-25T17:44:56.830Z,23.67
2023-01-25T17:55:02.071Z,23.17
2023-01-25T18:05:05.235Z,22.83
2023-01-25T18:15:12.777Z,21.90
2023-01-25T18:25:42.555Z,21.33
2023-01-25T18:35:48.015Z,21.97
2023-01-25T18:46:01.860Z,20.97
2023-01-25T18:56:10.885Z,21.93
2023-01-25T19:06:15.963Z,20.83
2023-01-25T19:16:28.897Z,19.27
2023-01-25T19:26:34.834Z,22.33
2023-01-25T19:36:39.040Z,22.63
2023-01-25T19:46:47.098Z,23.53
2023-01-25T19:56:52.011Z,24.17
2023-01-25T20:06:59.683Z,25.13
2023-01-25T20:17:03.067Z,23.50
2023-01-25T20:27:07.658Z,20.80
2023-01-25T20:37:11.312Z,21.97
2023-01-25T20:47:18.667Z,23.23
2023-01-25T20:57:23.325Z,19.23
2023-01-25T21:07:25.668Z,19.77
2023-01-25T21:17:32.598Z,18.67
2023-01-25T21:27:38.971Z,20.40
2023-01-25T21:37:46.364Z,20.43
2023-01-25T21:47:52.015Z,20.27
2023-01-25T21:57:54.178Z,21.57
2023-01-25T22:08:01.234Z,19.93
2023-01-25T22:18:03.460Z,21.07
2023-01-25T22:28:15.972Z,22.13
2023-01-25T22:38:20.495Z,21.20
2023-01-25T22:48:27.729Z,20.23
2023-01-25T22:58:38.117Z,22.30
2023-01-25T23:08:47.607Z,20.80
2023-01-25T23:18:52.071Z,19.93
2023-01-25T23:28:58.132Z,19.53
2023-01-25T23:39:01.606Z,19.47
2023-01-25T23:49:04.352Z,18.33
2023-01-25T23:59:08.929Z,18.90
